Time;durP1;ratioP1;P1;durP2;ratioP2;P2;SDS_P1;SDS_P2;PMS_P1;PMS_P2;Temp;Humidity;BMP_temperature;BMP_pressure;BME280_temperature;BME280_humidity;BME280_pressure;Samples;Min_cycle;Max_cycle;Signal;HPM_P1;HPM_P2
2022/04/20 00:06:27;;;;;;;5.50;2.80;;;;;;;;;;5609282;23;20048;-82
2022/04/20 00:11:28;;;;;;;6.43;3.28;;;;;;;;;;5647574;23;20062;-83
2022/04/20 00:13:53;;;;;;;6.45;3.42;;;;;;;;;;4941391;29;20020;-83
2022/04/20 00:16:22;;;;;;;10.05;3.83;;;;;;;;;;4942533;29;20031;-82
2022/04/20 00:18:51;;;;;;;8.45;4.00;;;;;;;;;;4958389;29;20018;-83
2022/04/20 00:21:19;;;;;;;;;;;;;;;;;;4940397;28;20047;-84
2022/04/20 00:23:50;;;;;;;8.93;5.30;;;;;;;;;;4961351;28;19919;-83
2022/04/20 00:26:17;;;;;;;7.35;3.60;;;;;;;;;;4944383;28;20016;-82
2022/04/20 00:28:58;;;;;;;9.27;4.63;;;;;;;;;;4959909;28;20048;-84
2022/04/20 00:31:26;;;;;;;10.57;4.45;;;;;;;;;;4943173;29;20043;-83
2022/04/20 00:33:52;;;;;;;8.95;4.07;;;;;;;;;;4941298;29;20036;-84
2022/04/20 00:41:27;;;;;;;6.70;3.55;;;;;;;;;;5755645;23;20038;-83
2022/04/20 00:43:53;;;;;;;12.18;4.30;;;;;;;;;;5674452;23;20023;-79
2022/04/20 00:46:19;;;;;;;7.95;3.92;;;;;;;;;;4926011;29;20009;-84
2022/04/20 00:48:45;;;;;;;8.27;3.95;;;;;;;;;;5692746;23;20018;-83
2022/04/20 00:53:46;;;;;;;11.23;3.72;;;;;;;;;;6032190;23;20036;-79
2022/04/20 00:58:47;;;;;;;8.73;4.03;;;;;;;;;;5934384;23;20043;-81
2022/04/20 01:11:33;;;;;;;10.38;4.15;;;;;;;;;;5237261;23;20063;-85
2022/04/20 01:13:58;;;;;;;7.22;3.95;;;;;;;;;;5676067;23;20014;-79
2022/04/20 01:16:33;;;;;;;8.48;4.20;;;;;;;;;;4959528;28;20067;-85
2022/04/20 01:19:00;;;;;;;9.18;3.92;;;;;;;;;;5699415;23;20136;-81
2022/04/20 01:21:25;;;;;;;8.70;3.97;;;;;;;;;;4943185;28;20032;-85
2022/04/20 01:23:54;;;;;;;6.63;3.60;;;;;;;;;;4944163;28;20012;-84
2022/04/20 01:26:19;;;;;;;8.65;3.42;;;;;;;;;;5909061;23;20014;-83
2022/04/20 01:28:45;;;;;;;8.23;4.10;;;;;;;;;;4956631;29;20054;-84
2022/04/20 01:59:36;;;;;;;7.50;3.67;;;;;;;;;;6019820;23;20014;-80
2022/04/20 02:04:45;;;;;;;9.48;3.75;;;;;;;;;;4963717;28;20014;-83
2022/04/20 02:09:46;;;;;;;7.90;3.30;;;;;;;;;;5717545;23;20034;-83
2022/04/20 02:12:12;;;;;;;7.85;3.50;;;;;;;;;;4963457;29;20032;-84
2022/04/20 02:14:38;;;;;;;11.70;3.67;;;;;;;;;;4947157;29;20012;-84
2022/04/20 02:17:05;;;;;;;7.65;3.80;;;;;;;;;;4946989;28;20004;-83
2022/04/20 02:19:30;;;;;;;8.57;3.83;;;;;;;;;;5036094;23;20044;-83
2022/04/20 02:21:55;;;;;;;7.35;3.80;;;;;;;;;;4963431;28;20031;-83
2022/04/20 02:24:23;;;;;;;6.63;3.65;;;;;;;;;;4975615;23;20042;-83
2022/04/20 02:26:55;;;;;;;9.48;4.07;;;;;;;;;;4947261;28;20024;-84
2022/04/20 02:37:06;;;;;;;8.02;3.72;;;;;;;;;;5917974;23;20255;-81
2022/04/20 02:39:32;;;;;;;7.38;4.00;;;;;;;;;;4920145;29;20027;-81
2022/04/20 02:41:58;;;;;;;9.95;4.57;;;;;;;;;;4937059;29;20055;-78
2022/04/20 02:44:23;;;;;;;10.18;4.68;;;;;;;;;;4920442;29;20020;-84
2022/04/20 02:46:48;;;;;;;12.60;5.35;;;;;;;;;;4938480;29;20024;-79
2022/04/20 02:49:13;;;;;;;10.60;4.60;;;;;;;;;;4939458;29;20046;-80
2022/04/20 02:51:38;;;;;;;14.45;4.55;;;;;;;;;;4920222;29;20391;-79
2022/04/20 02:54:04;;;;;;;12.13;4.00;;;;;;;;;;4937896;29;20475;-78
2022/04/20 02:56:29;;;;;;;9.48;4.57;;;;;;;;;;4921666;29;20118;-78
2022/04/20 02:58:54;;;;;;;6.72;3.72;;;;;;;;;;4942608;29;20499;-79
2022/04/20 03:01:19;;;;;;;9.66;3.54;;;;;;;;;;4927788;29;20024;-79
2022/04/20 03:03:44;;;;;;;10.77;4.13;;;;;;;;;;4928605;29;20079;-81
2022/04/20 03:06:10;;;;;;;8.93;3.90;;;;;;;;;;4946878;29;20099;-81
2022/04/20 03:08:36;;;;;;;8.27;3.78;;;;;;;;;;4946966;29;20023;-81
2022/04/20 03:11:01;;;;;;;7.78;4.25;;;;;;;;;;4948164;29;20051;-82
2022/04/20 03:13:26;;;;;;;7.57;3.92;;;;;;;;;;4920125;29;20698;-84
2022/04/20 03:15:51;;;;;;;10.15;3.90;;;;;;;;;;4940155;29;20030;-79
2022/04/20 03:18:16;;;;;;;10.15;4.88;;;;;;;;;;4938265;29;20024;-83
2022/04/20 03:20:42;;;;;;;10.73;4.03;;;;;;;;;;4938172;29;20110;-81
2022/04/20 03:23:07;;;;;;;7.18;3.90;;;;;;;;;;4943420;29;20032;-79
2022/04/20 03:25:32;;;;;;;7.00;3.65;;;;;;;;;;4943635;29;20056;-80
2022/04/20 03:27:57;;;;;;;8.27;4.25;;;;;;;;;;4944240;29;20019;-80
2022/04/20 03:30:23;;;;;;;11.18;4.14;;;;;;;;;;4944405;29;20027;-80
2022/04/20 03:32:48;;;;;;;7.78;4.05;;;;;;;;;;4947695;29;20079;-78
2022/04/20 03:35:14;;;;;;;9.95;3.83;;;;;;;;;;4931766;29;20034;-81
2022/04/20 03:37:42;;;;;;;9.85;3.75;;;;;;;;;;4947498;29;20038;-80
2022/04/20 03:40:17;;;;;;;8.38;3.63;;;;;;;;;;4946739;29;20028;-78
2022/04/20 03:42:42;;;;;;;6.80;3.38;;;;;;;;;;4942939;29;20095;-82
2022/04/20 03:45:07;;;;;;;11.10;4.60;;;;;;;;;;4940013;29;20051;-78
2022/04/20 03:47:32;;;;;;;11.05;3.97;;;;;;;;;;4940487;29;20016;-79
2022/04/20 03:49:57;;;;;;;10.45;3.67;;;;;;;;;;4938768;29;20026;-77
2022/04/20 03:52:23;;;;;;;6.45;3.60;;;;;;;;;;4938499;29;20032;-78
2022/04/20 03:54:48;;;;;;;7.25;3.97;;;;;;;;;;4937588;29;20095;-80
2022/04/20 03:57:13;;;;;;;6.95;3.45;;;;;;;;;;4936784;29;20044;-77
2022/04/20 03:59:39;;;;;;;10.48;4.18;;;;;;;;;;4935989;29;20027;-80
2022/04/20 04:02:05;;;;;;;9.20;3.90;;;;;;;;;;4935857;29;20028;-78
2022/04/20 04:04:30;;;;;;;11.38;4.28;;;;;;;;;;4918982;29;20441;-78
2022/04/20 04:06:55;;;;;;;9.18;4.20;;;;;;;;;;4924378;29;20016;-81
2022/04/20 04:09:20;;;;;;;8.57;3.83;;;;;;;;;;4923306;29;20479;-79
2022/04/20 04:11:46;;;;;;;6.32;3.65;;;;;;;;;;4937612;29;20563;-78
2022/04/20 04:14:11;;;;;;;7.82;3.90;;;;;;;;;;4919215;29;20032;-79
2022/04/20 04:16:36;;;;;;;13.73;4.20;;;;;;;;;;4936781;29;20144;-79
2022/04/20 04:19:05;;;;;;;15.30;4.45;;;;;;;;;;4936681;29;20479;-77
2022/04/20 04:21:31;;;;;;;8.00;4.13;;;;;;;;;;4936155;29;20503;-79
2022/04/20 04:23:57;;;;;;;8.77;3.85;;;;;;;;;;4937207;29;20024;-79
2022/04/20 04:26:23;;;;;;;9.90;3.97;;;;;;;;;;4936479;29;20397;-77
2022/04/20 04:28:48;;;;;;;7.07;4.40;;;;;;;;;;4936580;29;20030;-79
2022/04/20 04:31:13;;;;;;;8.23;4.30;;;;;;;;;;4936464;29;20471;-78
2022/04/20 04:33:38;;;;;;;10.55;4.43;;;;;;;;;;4920267;29;20034;-79
2022/04/20 04:36:04;;;;;;;8.50;4.32;;;;;;;;;;4921016;29;20550;-78
2022/04/20 04:38:29;;;;;;;10.75;5.45;;;;;;;;;;4921108;29;20032;-79
2022/04/20 04:40:55;;;;;;;10.80;4.30;;;;;;;;;;4938100;29;20032;-79
2022/04/20 04:43:20;;;;;;;8.65;4.40;;;;;;;;;;4938706;29;20023;-78
2022/04/20 04:48:36;;;;;;;8.80;4.13;;;;;;;;;;4953155;29;20041;-79
2022/04/20 04:51:01;;;;;;;14.27;4.50;;;;;;;;;;4957183;29;20099;-78
2022/04/20 04:53:26;;;;;;;11.13;4.75;;;;;;;;;;4957790;29;20136;-78
2022/04/20 04:55:51;;;;;;;15.10;5.20;;;;;;;;;;4946804;29;20062;-78
2022/04/20 04:58:17;;;;;;;14.30;3.97;;;;;;;;;;4936389;29;20039;-78
2022/04/20 05:00:42;;;;;;;10.27;4.53;;;;;;;;;;4937223;29;20028;-79
2022/04/20 05:03:08;;;;;;;7.50;3.47;;;;;;;;;;4938044;29;20372;-80
2022/04/20 05:05:33;;;;;;;11.40;4.30;;;;;;;;;;4936853;29;20024;-78
2022/04/20 05:07:59;;;;;;;11.85;4.30;;;;;;;;;;4936289;29;20020;-77
2022/04/20 05:10:24;;;;;;;6.75;3.78;;;;;;;;;;4918417;29;20052;-79
2022/04/20 05:12:49;;;;;;;10.38;3.80;;;;;;;;;;4918978;29;20371;-78
2022/04/20 05:15:14;;;;;;;8.07;4.32;;;;;;;;;;4936776;29;20023;-80
2022/04/20 05:17:39;;;;;;;10.38;4.45;;;;;;;;;;4939984;29;20468;-78
2022/04/20 05:20:05;;;;;;;8.65;4.20;;;;;;;;;;4940043;29;20027;-78
2022/04/20 05:22:31;;;;;;;11.82;4.50;;;;;;;;;;4923364;29;20103;-78
2022/04/20 05:24:56;;;;;;;9.88;4.05;;;;;;;;;;4939681;29;20028;-78
2022/04/20 05:27:22;;;;;;;9.52;3.60;;;;;;;;;;4939798;29;20046;-78
2022/04/20 05:29:47;;;;;;;15.73;4.63;;;;;;;;;;4939939;29;20028;-79
2022/04/20 05:32:12;;;;;;;9.95;4.65;;;;;;;;;;4939822;29;20377;-78
2022/04/20 05:34:37;;;;;;;13.00;4.85;;;;;;;;;;4939706;29;20039;-79
2022/04/20 05:42:30;;;;;;;10.48;4.75;;;;;;;;;;4939200;29;20042;-78
2022/04/20 05:44:56;;;;;;;7.63;4.10;;;;;;;;;;4939852;29;20024;-79
2022/04/20 05:47:21;;;;;;;11.02;4.50;;;;;;;;;;4921767;29;20027;-78
2022/04/20 05:49:46;;;;;;;11.50;4.30;;;;;;;;;;4940359;29;20111;-78
2022/04/20 05:52:11;;;;;;;18.90;5.57;;;;;;;;;;4938873;29;20019;-79
2022/04/20 05:54:36;;;;;;;13.45;6.53;;;;;;;;;;4957259;29;20027;-78
2022/04/20 05:57:02;;;;;;;11.98;5.35;;;;;;;;;;4941835;29;20076;-79
2022/04/20 05:59:27;;;;;;;10.80;4.07;;;;;;;;;;4956796;29;20020;-79
2022/04/20 06:01:53;;;;;;;15.30;4.57;;;;;;;;;;4957901;29;20023;-79
2022/04/20 06:04:18;;;;;;;11.73;4.60;;;;;;;;;;4938737;29;20020;-78
2022/04/20 06:06:43;;;;;;;16.55;4.35;;;;;;;;;;4956723;29;20020;-78
2022/04/20 06:09:09;;;;;;;11.27;4.20;;;;;;;;;;4948682;29;20067;-78
2022/04/20 06:11:37;;;;;;;11.07;4.50;;;;;;;;;;4928928;29;20023;-79
2022/04/20 06:14:03;;;;;;;16.13;4.00;;;;;;;;;;4943653;29;20015;-79
2022/04/20 06:16:28;;;;;;;12.63;4.68;;;;;;;;;;4942772;29;20039;-79
2022/04/20 06:18:54;;;;;;;7.40;4.53;;;;;;;;;;4940927;29;20020;-78
2022/04/20 06:21:20;;;;;;;9.45;4.38;;;;;;;;;;4941444;29;20032;-79
2022/04/20 06:23:45;;;;;;;8.82;4.30;;;;;;;;;;4942261;29;20201;-78
2022/04/20 06:26:11;;;;;;;15.15;4.53;;;;;;;;;;4940949;29;20023;-79
2022/04/20 06:28:36;;;;;;;13.52;4.53;;;;;;;;;;4939722;29;20102;-78
2022/04/20 06:31:02;;;;;;;12.45;4.55;;;;;;;;;;4923761;29;20055;-78
2022/04/20 06:33:27;;;;;;;10.70;4.85;;;;;;;;;;4939364;29;20491;-77
2022/04/20 06:35:53;;;;;;;14.65;4.97;;;;;;;;;;4922295;29;20027;-79
2022/04/20 06:38:18;;;;;;;14.70;4.18;;;;;;;;;;4938871;29;20083;-77
2022/04/20 06:40:55;;;;;;;11.88;4.60;;;;;;;;;;4938175;29;20027;-79
2022/04/20 06:43:21;;;;;;;6.90;3.65;;;;;;;;;;4921054;29;20020;-79
2022/04/20 06:45:46;;;;;;;9.32;3.65;;;;;;;;;;4937796;29;20070;-78
2022/04/20 06:48:11;;;;;;;11.98;3.83;;;;;;;;;;4920554;29;20020;-78
2022/04/20 06:50:39;;;;;;;9.70;4.43;;;;;;;;;;4938661;29;20028;-79
2022/04/20 06:58:32;;;;;;;7.40;4.13;;;;;;;;;;4938447;29;20435;-78
2022/04/20 07:00:58;;;;;;;15.60;5.07;;;;;;;;;;4936793;29;20091;-81
2022/04/20 07:03:23;;;;;;;8.50;4.25;;;;;;;;;;4937000;29;20030;-80
2022/04/20 07:05:48;;;;;;;13.13;4.72;;;;;;;;;;4936921;29;20087;-80
2022/04/20 07:08:14;;;;;;;9.35;5.15;;;;;;;;;;4936699;29;20095;-82
2022/04/20 07:10:39;;;;;;;9.07;4.15;;;;;;;;;;4936832;29;20027;-82
2022/04/20 07:13:04;;;;;;;11.20;4.45;;;;;;;;;;4936779;29;20525;-81
2022/04/20 07:15:29;;;;;;;9.75;4.50;;;;;;;;;;4920659;29;20543;-82
2022/04/20 07:17:54;;;;;;;8.38;3.95;;;;;;;;;;4939173;29;20518;-80
2022/04/20 07:20:20;;;;;;;11.38;4.60;;;;;;;;;;4938288;29;20023;-78
2022/04/20 07:22:48;;;;;;;12.57;4.55;;;;;;;;;;4921302;29;20023;-80
2022/04/20 07:25:18;;;;;;;11.02;4.78;;;;;;;;;;4937512;29;20031;-81
2022/04/20 07:27:48;;;;;;;6.55;3.83;;;;;;;;;;4919897;29;20467;-81
2022/04/20 07:30:14;;;;;;;11.93;3.95;;;;;;;;;;4937189;29;20031;-79
2022/04/20 07:32:39;;;;;;;7.32;3.55;;;;;;;;;;4920076;29;20122;-80
2022/04/20 07:35:04;;;;;;;7.15;3.65;;;;;;;;;;4921592;29;20216;-79
2022/04/20 07:37:31;;;;;;;9.30;3.60;;;;;;;;;;4937749;29;20494;-83
2022/04/20 07:39:56;;;;;;;7.80;3.83;;;;;;;;;;4920223;29;20145;-79
2022/04/20 07:42:21;;;;;;;8.05;3.33;;;;;;;;;;4938163;29;20176;-82
2022/04/20 07:44:46;;;;;;;5.65;3.30;;;;;;;;;;4936868;29;20094;-79
2022/04/20 07:47:12;;;;;;;9.65;4.35;;;;;;;;;;4936262;29;20016;-82
2022/04/20 07:52:21;;;;;;;10.85;4.25;;;;;;;;;;4936465;29;20026;-80
2022/04/20 07:54:46;;;;;;;7.65;3.97;;;;;;;;;;4918812;29;20024;-80
2022/04/20 07:57:14;;;;;;;9.68;4.00;;;;;;;;;;4936082;29;20055;-77
2022/04/20 07:59:39;;;;;;;10.03;4.17;;;;;;;;;;4935964;29;20028;-78
2022/04/20 08:02:04;;;;;;;10.73;3.80;;;;;;;;;;4936183;29;20027;-80
2022/04/20 08:04:30;;;;;;;15.07;5.25;;;;;;;;;;4936563;29;20023;-78
2022/04/20 08:06:55;;;;;;;8.90;3.92;;;;;;;;;;4936295;29;20067;-80
2022/04/20 08:09:20;;;;;;;10.75;4.00;;;;;;;;;;4952071;29;20499;-76
2022/04/20 08:11:45;;;;;;;8.25;4.20;;;;;;;;;;4936960;29;20022;-80
2022/04/20 08:14:10;;;;;;;9.40;4.38;;;;;;;;;;4936727;29;20122;-79
2022/04/20 08:16:36;;;;;;;10.07;4.40;;;;;;;;;;4954062;29;20012;-80
2022/04/20 08:19:01;;;;;;;6.72;4.18;;;;;;;;;;4954286;29;20027;-80
2022/04/20 08:21:27;;;;;;;10.30;4.35;;;;;;;;;;4952566;29;20111;-82
2022/04/20 08:23:52;;;;;;;16.92;4.47;;;;;;;;;;4936230;29;20127;-84
2022/04/20 08:26:17;;;;;;;11.18;5.18;;;;;;;;;;4937029;29;20494;-83
2022/04/20 08:28:42;;;;;;;10.98;4.35;;;;;;;;;;4919301;29;20073;-84
2022/04/20 08:31:08;;;;;;;9.43;4.22;;;;;;;;;;4935562;29;20134;-83
2022/04/20 08:33:33;;;;;;;10.80;5.13;;;;;;;;;;4918924;29;20301;-86
2022/04/20 08:35:59;;;;;;;10.55;4.30;;;;;;;;;;4918404;29;20144;-85
2022/04/20 08:38:24;;;;;;;8.23;4.07;;;;;;;;;;4936609;29;20091;-82
2022/04/20 08:40:52;;;;;;;8.48;4.47;;;;;;;;;;4918466;29;20098;-82
2022/04/20 08:43:19;;;;;;;9.13;4.30;;;;;;;;;;4920518;29;20428;-84
2022/04/20 08:45:45;;;;;;;9.65;4.22;;;;;;;;;;4935399;29;20054;-81
2022/04/20 08:48:11;;;;;;;7.95;3.60;;;;;;;;;;4943169;29;20020;-84
2022/04/20 08:50:36;;;;;;;9.38;4.57;;;;;;;;;;4935260;29;20070;-80
2022/04/20 08:53:02;;;;;;;8.45;3.97;;;;;;;;;;4936094;29;20503;-82
2022/04/20 08:55:28;;;;;;;7.45;4.20;;;;;;;;;;4936335;29;20055;-81
2022/04/20 08:57:54;;;;;;;11.38;4.22;;;;;;;;;;4921270;29;20454;-82
2022/04/20 09:00:24;;;;;;;10.50;4.20;;;;;;;;;;4939949;29;20116;-81
2022/04/20 09:02:52;;;;;;;11.15;3.85;;;;;;;;;;4921480;29;20024;-82
2022/04/20 09:05:17;;;;;;;6.70;3.83;;;;;;;;;;4921994;29;20103;-81
2022/04/20 09:07:42;;;;;;;14.13;5.00;;;;;;;;;;4940671;29;20047;-80
2022/04/20 09:10:08;;;;;;;9.50;3.92;;;;;;;;;;4940465;29;20022;-79
2022/04/20 09:12:33;;;;;;;7.25;4.28;;;;;;;;;;4938364;29;20441;-79
2022/04/20 09:15:00;;;;;;;6.28;3.65;;;;;;;;;;4939437;29;20127;-81
2022/04/20 09:17:26;;;;;;;8.85;4.43;;;;;;;;;;4939387;29;20027;-80
2022/04/20 09:19:53;;;;;;;8.32;3.83;;;;;;;;;;4941292;29;20024;-80
2022/04/20 09:22:19;;;;;;;8.77;3.42;;;;;;;;;;4917833;29;20063;-82
2022/04/20 09:25:00;;;;;;;10.30;3.80;;;;;;;;;;4936348;29;20034;-81
2022/04/20 09:27:26;;;;;;;8.05;3.35;;;;;;;;;;4936457;29;20051;-78
2022/04/20 09:29:52;;;;;;;6.28;3.00;;;;;;;;;;4939516;29;20015;-79
2022/04/20 09:32:29;;;;;;;6.10;3.30;;;;;;;;;;4935771;29;20420;-80
2022/04/20 09:34:58;;;;;;;8.95;3.35;;;;;;;;;;4936675;29;20240;-81
2022/04/20 09:37:23;;;;;;;6.95;3.35;;;;;;;;;;4937266;29;20036;-80
2022/04/20 09:39:51;;;;;;;9.10;3.95;;;;;;;;;;4938104;29;20078;-80
2022/04/20 09:42:18;;;;;;;7.38;4.07;;;;;;;;;;4940035;29;20542;-79
2022/04/20 09:44:52;;;;;;;6.78;3.55;;;;;;;;;;4937774;29;20020;-78
2022/04/20 09:50:04;;;;;;;9.82;3.83;;;;;;;;;;4934466;29;20102;-78
2022/04/20 09:52:40;;;;;;;8.30;3.15;;;;;;;;;;4934603;29;20052;-80
2022/04/20 09:55:06;;;;;;;6.22;3.28;;;;;;;;;;4918717;29;20102;-81
2022/04/20 09:57:31;;;;;;;10.80;3.97;;;;;;;;;;4935153;29;20587;-80
2022/04/20 09:59:57;;;;;;;7.60;4.25;;;;;;;;;;4934924;29;20184;-81
2022/04/20 10:02:23;;;;;;;11.48;3.72;;;;;;;;;;4924663;29;20106;-81
2022/04/20 10:04:48;;;;;;;7.55;3.60;;;;;;;;;;4941559;29;20412;-79
2022/04/20 10:07:16;;;;;;;8.18;3.38;;;;;;;;;;4940921;29;20103;-81
2022/04/20 10:09:43;;;;;;;6.47;3.27;;;;;;;;;;4941328;29;20024;-79
2022/04/20 10:12:10;;;;;;;8.35;3.40;;;;;;;;;;4926955;29;20341;-81
2022/04/20 10:17:21;;;;;;;7.25;3.30;;;;;;;;;;4937399;29;20471;-81
2022/04/20 10:19:47;;;;;;;9.00;3.95;;;;;;;;;;4923735;29;20452;-80
2022/04/20 10:22:13;;;;;;;6.75;3.60;;;;;;;;;;4939066;29;20107;-80
2022/04/20 10:24:38;;;;;;;10.70;4.18;;;;;;;;;;4937417;29;20027;-78
2022/04/20 10:27:08;;;;;;;7.40;4.10;;;;;;;;;;4937298;29;20019;-82
2022/04/20 10:29:39;;;;;;;8.27;3.40;;;;;;;;;;4920412;29;20105;-83
2022/04/20 10:32:24;;;;;;;16.55;3.70;;;;;;;;;;4937161;29;20031;-78
2022/04/20 10:34:52;;;;;;;8.73;4.45;;;;;;;;;;4937187;29;20047;-79
2022/04/20 10:37:25;;;;;;;8.27;3.88;;;;;;;;;;4936929;29;20032;-80
2022/04/20 10:39:52;;;;;;;9.77;3.67;;;;;;;;;;4937375;29;20039;-80
2022/04/20 10:42:17;;;;;;;9.68;3.88;;;;;;;;;;4936656;29;20067;-82
2022/04/20 10:44:55;;;;;;;7.68;3.70;;;;;;;;;;4936558;29;20023;-80
2022/04/20 10:47:23;;;;;;;9.23;3.70;;;;;;;;;;4919385;29;20043;-82
2022/04/20 10:49:52;;;;;;;8.02;4.05;;;;;;;;;;4936943;29;20023;-81
2022/04/20 10:52:23;;;;;;;7.03;3.53;;;;;;;;;;4936499;29;20043;-81
2022/04/20 10:54:50;;;;;;;8.95;3.80;;;;;;;;;;4919278;29;20460;-81
2022/04/20 10:57:16;;;;;;;9.70;4.40;;;;;;;;;;4919232;29;20027;-81
2022/04/20 10:59:41;;;;;;;6.88;3.58;;;;;;;;;;4919520;29;20023;-81
2022/04/20 11:02:08;;;;;;;7.97;4.10;;;;;;;;;;4936759;29;20030;-80
2022/04/20 11:04:39;;;;;;;10.27;4.22;;;;;;;;;;4919044;29;20384;-79
2022/04/20 11:07:06;;;;;;;10.43;3.88;;;;;;;;;;4919572;29;20031;-80
2022/04/20 11:09:45;;;;;;;6.45;3.42;;;;;;;;;;4919376;29;20027;-79
2022/04/20 11:21:02;;;;;;;8.55;3.95;;;;;;;;;;4935972;29;20055;-78
2022/04/20 11:23:46;;;;;;;7.28;3.38;;;;;;;;;;4936183;29;20024;-77
2022/04/20 11:26:12;;;;;;;6.35;3.60;;;;;;;;;;4935927;29;20024;-79
2022/04/20 11:28:41;;;;;;;8.75;3.20;;;;;;;;;;4935896;29;20020;-78
2022/04/20 11:31:06;;;;;;;9.82;3.72;;;;;;;;;;4918927;29;20031;-78
2022/04/20 11:33:32;;;;;;;6.18;3.25;;;;;;;;;;4935367;29;20036;-78
2022/04/20 11:35:58;;;;;;;8.40;3.33;;;;;;;;;;4935473;29;20020;-78
2022/04/20 11:38:39;;;;;;;7.93;3.50;;;;;;;;;;4935432;29;20043;-80
2022/04/20 11:41:05;;;;;;;7.65;3.78;;;;;;;;;;4935006;29;20471;-80
2022/04/20 11:43:31;;;;;;;7.82;3.72;;;;;;;;;;4935102;29;20106;-79
2022/04/20 11:45:56;;;;;;;6.55;3.50;;;;;;;;;;4918463;29;20030;-79
2022/04/20 11:48:21;;;;;;;7.90;4.80;;;;;;;;;;4935565;29;20155;-78
2022/04/20 11:51:00;;;;;;;12.27;4.65;;;;;;;;;;4935106;29;20038;-79
2022/04/20 11:53:36;;;;;;;9.43;4.38;;;;;;;;;;4918102;29;20024;-80
2022/04/20 11:56:02;;;;;;;10.13;4.40;;;;;;;;;;4918386;29;20400;-77
2022/04/20 11:58:27;;;;;;;8.88;4.20;;;;;;;;;;4917763;29;20027;-79
2022/04/20 12:01:00;;;;;;;9.75;4.32;;;;;;;;;;4935152;29;20384;-78
2022/04/20 12:03:29;;;;;;;12.07;4.45;;;;;;;;;;4934739;29;20012;-78
2022/04/20 12:06:05;;;;;;;11.93;4.22;;;;;;;;;;4917882;29;20020;-79
2022/04/20 12:08:31;;;;;;;8.52;4.70;;;;;;;;;;4934619;29;20070;-78
2022/04/20 12:10:57;;;;;;;11.20;4.43;;;;;;;;;;4935110;29;20035;-79
2022/04/20 12:13:29;;;;;;;6.95;4.22;;;;;;;;;;4934610;29;20392;-78
2022/04/20 12:16:04;;;;;;;10.23;4.53;;;;;;;;;;4934666;29;20026;-79
2022/04/20 12:18:30;;;;;;;13.27;5.13;;;;;;;;;;4934618;29;20045;-80
2022/04/20 12:20:56;;;;;;;13.70;5.22;;;;;;;;;;4934803;29;20383;-79
2022/04/20 12:23:21;;;;;;;6.78;4.38;;;;;;;;;;4934659;29;20023;-78
2022/04/20 12:25:50;;;;;;;7.68;4.63;;;;;;;;;;4933956;29;20091;-78
2022/04/20 12:31:01;;;;;;;8.85;4.95;;;;;;;;;;4935211;29;20558;-79
2022/04/20 12:33:26;;;;;;;10.02;4.72;;;;;;;;;;4934314;29;20543;-80
2022/04/20 12:35:58;;;;;;;9.88;5.40;;;;;;;;;;4917540;29;20102;-81
2022/04/20 12:38:24;;;;;;;10.32;5.00;;;;;;;;;;4917597;29;20395;-80
2022/04/20 12:40:49;;;;;;;10.43;4.75;;;;;;;;;;4935178;29;20043;-80
2022/04/20 12:43:14;;;;;;;9.93;5.18;;;;;;;;;;4934950;29;20071;-78
2022/04/20 12:45:39;;;;;;;10.90;5.30;;;;;;;;;;4934712;29;20070;-80
2022/04/20 12:48:06;;;;;;;9.32;4.97;;;;;;;;;;4934846;29;20024;-80
2022/04/20 12:50:38;;;;;;;8.23;4.82;;;;;;;;;;4917748;29;20028;-80
2022/04/20 12:53:04;;;;;;;11.90;4.50;;;;;;;;;;4917609;29;20214;-79
2022/04/20 12:55:36;;;;;;;7.75;4.90;;;;;;;;;;4934871;29;20475;-80
2022/04/20 13:03:37;;;;;;;13.68;4.65;;;;;;;;;;4934781;29;20026;-80
2022/04/20 13:06:03;;;;;;;8.63;4.10;;;;;;;;;;4917343;29;20050;-79
2022/04/20 13:08:28;;;;;;;9.70;4.45;;;;;;;;;;4934319;29;20083;-78
2022/04/20 13:10:54;;;;;;;10.80;4.32;;;;;;;;;;4934448;29;20310;-77
2022/04/20 13:13:23;;;;;;;10.18;4.15;;;;;;;;;;4934242;29;20140;-79
2022/04/20 13:15:48;;;;;;;7.00;3.67;;;;;;;;;;4933977;29;20023;-80
2022/04/20 13:18:13;;;;;;;10.13;3.78;;;;;;;;;;4916902;29;20491;-77
2022/04/20 13:20:38;;;;;;;7.65;3.47;;;;;;;;;;4935192;29;20035;-80
2022/04/20 13:23:07;;;;;;;7.78;3.80;;;;;;;;;;4917184;29;20111;-81
2022/04/20 13:28:15;;;;;;;11.07;3.90;;;;;;;;;;4934979;29;20403;-81
2022/04/20 13:30:41;;;;;;;7.95;4.63;;;;;;;;;;4934331;29;20019;-78
2022/04/20 13:33:07;;;;;;;8.05;3.92;;;;;;;;;;4917335;29;20107;-82
2022/04/20 13:35:36;;;;;;;6.03;3.03;;;;;;;;;;4934781;29;20035;-80
2022/04/20 13:38:01;;;;;;;7.05;3.08;;;;;;;;;;4939379;29;20032;-80
2022/04/20 13:40:27;;;;;;;6.57;3.30;;;;;;;;;;4944656;29;20601;-79
2022/04/20 13:42:54;;;;;;;5.43;3.35;;;;;;;;;;4922379;29;20027;-80
2022/04/20 13:45:19;;;;;;;9.07;4.43;;;;;;;;;;4938638;29;20068;-77
2022/04/20 13:47:45;;;;;;;15.32;9.02;;;;;;;;;;4942026;29;20047;-78
2022/04/20 13:50:10;;;;;;;6.88;4.07;;;;;;;;;;4939910;29;20051;-80
2022/04/20 13:52:36;;;;;;;5.87;3.53;;;;;;;;;;4942158;29;20016;-79
2022/04/20 13:55:02;;;;;;;9.93;3.75;;;;;;;;;;4940560;29;20246;-78
2022/04/20 13:57:27;;;;;;;6.55;3.40;;;;;;;;;;4943672;29;20026;-80
2022/04/20 13:59:53;;;;;;;5.35;2.80;;;;;;;;;;4930283;29;20104;-82
2022/04/20 14:02:18;;;;;;;4.93;2.67;;;;;;;;;;4947787;29;20079;-81
2022/04/20 14:04:44;;;;;;;4.85;2.45;;;;;;;;;;4945994;29;20099;-79
2022/04/20 14:07:09;;;;;;;8.80;3.00;;;;;;;;;;4944099;29;20020;-79
2022/04/20 14:09:37;;;;;;;5.65;2.60;;;;;;;;;;4941776;29;20024;-80
2022/04/20 14:12:03;;;;;;;5.67;2.70;;;;;;;;;;4941281;29;20514;-80
2022/04/20 14:14:29;;;;;;;5.03;2.70;;;;;;;;;;4922020;29;20025;-81
2022/04/20 14:16:57;;;;;;;11.80;4.85;;;;;;;;;;4936846;29;20086;-82
2022/04/20 14:19:25;;;;;;;4.63;2.65;;;;;;;;;;4937191;29;20026;-82
2022/04/20 14:21:50;;;;;;;6.85;2.38;;;;;;;;;;4919501;29;20039;-81
2022/04/20 14:24:16;;;;;;;5.75;2.47;;;;;;;;;;4937080;29;20020;-81
2022/04/20 14:32:30;;;;;;;5.20;2.35;;;;;;;;;;4934513;29;20048;-80
2022/04/20 14:34:55;;;;;;;9.30;2.30;;;;;;;;;;4934658;29;20020;-79
2022/04/20 14:37:21;;;;;;;5.40;2.67;;;;;;;;;;4919045;29;20039;-79
2022/04/20 14:42:52;;;;;;;4.70;2.22;;;;;;;;;;4916498;29;20036;-92
2022/04/20 14:49:00;;;;;;;6.15;2.55;;;;;;;;;;4884562;29;20112;-89
2022/04/20 14:51:59;;;;;;;5.25;1.90;;;;;;;;;;4884411;29;20032;-90
2022/04/20 14:54:30;;;;;;;8.45;2.25;;;;;;;;;;4882692;29;20028;-91
2022/04/20 15:03:47;;;;;;;8.40;1.90;;;;;;;;;;4892094;29;20572;-90
2022/04/20 15:09:23;;;;;;;5.55;1.70;;;;;;;;;;4899800;29;20036;-91
2022/04/20 15:11:49;;;;;;;3.45;1.50;;;;;;;;;;4883481;29;20242;-89
2022/04/20 15:14:14;;;;;;;4.03;1.95;;;;;;;;;;4883686;29;20031;-90
2022/04/20 15:16:40;;;;;;;3.95;1.77;;;;;;;;;;4883526;29;20396;-92
2022/04/20 15:19:05;;;;;;;6.70;2.20;;;;;;;;;;4884334;29;20368;-89
2022/04/20 15:21:31;;;;;;;8.90;2.30;;;;;;;;;;4883663;29;20048;-91
2022/04/20 15:23:56;;;;;;;6.10;2.58;;;;;;;;;;4882716;29;20028;-92
2022/04/20 15:26:22;;;;;;;3.70;2.03;;;;;;;;;;4882720;29;20072;-91
2022/04/20 15:28:47;;;;;;;4.57;1.80;;;;;;;;;;4882921;29;20055;-91
2022/04/20 15:31:19;;;;;;;5.95;1.73;;;;;;;;;;4883031;29;20119;-92
2022/04/20 15:33:45;;;;;;;6.75;3.03;;;;;;;;;;4883110;29;20024;-91
2022/04/20 15:36:11;;;;;;;4.05;2.05;;;;;;;;;;4883186;29;20025;-92
2022/04/20 15:38:37;;;;;;;4.38;1.95;;;;;;;;;;4881994;29;20492;-92
2022/04/20 15:41:02;;;;;;;9.70;4.10;;;;;;;;;;4882125;29;20036;-91
2022/04/20 15:43:32;;;;;;;6.22;2.25;;;;;;;;;;4882191;29;20024;-93
2022/04/20 15:45:57;;;;;;;4.65;1.90;;;;;;;;;;4882723;29;20031;-92
2022/04/20 15:48:22;;;;;;;3.85;1.80;;;;;;;;;;4883789;29;20107;-92
2022/04/20 15:50:48;;;;;;;7.43;2.35;;;;;;;;;;4899048;29;20059;-92
2022/04/20 15:53:13;;;;;;;4.78;1.95;;;;;;;;;;4883272;29;20028;-92
2022/04/20 16:01:06;;;;;;;7.80;2.53;;;;;;;;;;4899188;29;20027;-92
2022/04/20 16:03:31;;;;;;;5.03;2.33;;;;;;;;;;4881725;29;20028;-92
2022/04/20 16:05:57;;;;;;;9.35;2.38;;;;;;;;;;4903574;29;20024;-91
2022/04/20 16:08:23;;;;;;;5.05;2.00;;;;;;;;;;4885887;29;20028;-91
2022/04/20 16:10:49;;;;;;;3.58;1.85;;;;;;;;;;4882159;29;20119;-92
2022/04/20 16:13:16;;;;;;;4.82;1.92;;;;;;;;;;4881290;29;20046;-92
2022/04/20 16:15:41;;;;;;;4.60;2.10;;;;;;;;;;4898876;29;20111;-91
2022/04/20 16:18:06;;;;;;;6.22;1.90;;;;;;;;;;4898922;29;20063;-91
2022/04/20 16:20:32;;;;;;;7.50;2.10;;;;;;;;;;4881999;29;20025;-91
2022/04/20 16:22:57;;;;;;;5.53;2.40;;;;;;;;;;4882457;29;20020;-91
2022/04/20 16:25:23;;;;;;;4.35;2.08;;;;;;;;;;4881675;29;20032;-91
2022/04/20 16:27:48;;;;;;;6.22;2.08;;;;;;;;;;4882005;29;20016;-92
2022/04/20 16:30:14;;;;;;;6.25;2.30;;;;;;;;;;4881818;29;20021;-90
2022/04/20 16:32:39;;;;;;;10.77;2.72;;;;;;;;;;4882252;29;20378;-92
2022/04/20 16:35:05;;;;;;;7.45;3.78;;;;;;;;;;4882507;29;20024;-90
2022/04/20 16:37:30;;;;;;;5.65;2.25;;;;;;;;;;4882288;29;20025;-92
2022/04/20 16:39:55;;;;;;;8.88;2.53;;;;;;;;;;4897474;29;20032;-92
2022/04/20 16:42:21;;;;;;;5.70;2.80;;;;;;;;;;4881663;29;20036;-92
2022/04/20 16:44:46;;;;;;;6.32;2.30;;;;;;;;;;4881176;29;20054;-92
2022/04/20 16:47:11;;;;;;;5.32;2.35;;;;;;;;;;4881608;29;20067;-92
2022/04/20 16:49:37;;;;;;;7.93;2.10;;;;;;;;;;4881396;29;20492;-92
2022/04/20 16:52:02;;;;;;;4.22;2.10;;;;;;;;;;4897471;29;20393;-92
2022/04/20 16:54:28;;;;;;;6.60;2.20;;;;;;;;;;4898162;29;20021;-91